Boston, Massachusetts
Current Conditions -  °F | °C
As of 7:54 AM on Tuesday 21 Oct 2014 (Local Time) from KBOS Reporting Station
Overcast Overcast  
Wind Chill: 56°   Ceiling: 6000
Heat Index: 56°   Visibility: 10mi
Dew Point: 53°   Wind: 9mph
Humidity: 90%   Direction: 110°ESE
Pressure: 29.97"   Gusts: NA
Location:  42.36°N, 71.06°W
Report Text: KBOS 211154Z 11008KT 10SM FEW045 BKN060 OVC150 13/12 A2997 RMK AO2 SLP149 60000 T01330117 10133 20094 55003
Loading
Personal Weather Stations






























Interactive Weather Map
Tropical Storm Tracking
New forecast layout! Learn more

10-Day Weather Forecast

Advertisements
Track Severe Weather on mobile